createdAt,value
2023-05-11T00:01:55.773Z,101005.59
2023-05-11T00:04:26.488Z,100999.63
2023-05-11T00:06:55.404Z,100999.00
2023-05-11T00:09:22.708Z,100991.38
2023-05-11T00:11:49.966Z,100998.22
2023-05-11T00:14:17.208Z,100993.94
2023-05-11T00:16:44.408Z,100995.75
2023-05-11T00:19:11.905Z,101003.88
2023-05-11T00:21:39.258Z,100993.81
2023-05-11T00:24:07.254Z,100989.69
2023-05-11T00:26:34.672Z,100989.03
2023-05-11T00:29:02.062Z,100986.56
2023-05-11T00:31:30.513Z,100995.50
2023-05-11T00:33:58.048Z,100998.81
2023-05-11T00:36:25.405Z,100998.97
2023-05-11T00:38:53.365Z,100991.56
2023-05-11T00:41:22.075Z,100998.22
2023-05-11T00:43:49.311Z,100992.81
2023-05-11T00:46:16.608Z,100994.63
2023-05-11T00:48:44.684Z,100993.16
2023-05-11T00:51:13.529Z,100990.69
2023-05-11T00:53:41.086Z,101004.09
2023-05-11T00:56:09.147Z,100999.00
2023-05-11T00:58:36.886Z,100999.97
2023-05-11T01:01:04.331Z,101001.81
2023-05-11T01:03:33.389Z,100998.50
2023-05-11T01:06:07.824Z,101001.50
2023-05-11T01:08:48.575Z,101007.16
2023-05-11T01:11:26.633Z,101007.84
2023-05-11T01:14:00.546Z,101004.53
2023-05-11T01:16:32.336Z,101006.34
2023-05-11T01:19:18.858Z,101004.91
2023-05-11T01:21:51.206Z,101011.84
2023-05-11T01:24:32.555Z,101003.91
2023-05-11T01:27:09.753Z,101006.41
2023-05-11T01:29:49.847Z,101003.59
2023-05-11T01:32:21.465Z,101007.59
2023-05-11T01:34:58.187Z,101012.53
2023-05-11T01:37:27.545Z,101013.72
2023-05-11T01:39:59.545Z,101012.41
2023-05-11T01:42:35.895Z,101015.38
2023-05-11T01:45:06.888Z,101018.72
2023-05-11T01:47:35.704Z,101022.69
2023-05-11T01:50:07.444Z,101020.22
2023-05-11T01:52:37.822Z,101024.22
2023-05-11T01:55:07.579Z,101028.19
2023-05-11T01:57:38.780Z,101022.59
2023-05-11T02:00:07.954Z,101026.22
2023-05-11T02:02:37.201Z,101019.94
2023-05-11T02:05:07.793Z,101031.50
2023-05-11T02:07:37.002Z,101020.28
2023-05-11T02:10:05.291Z,101034.34
2023-05-11T02:12:34.308Z,101037.16
2023-05-11T02:15:04.191Z,101036.50
2023-05-11T02:17:34.557Z,101029.53
2023-05-11T02:20:05.007Z,101034.19
2023-05-11T02:22:34.099Z,101032.38
2023-05-11T02:25:01.431Z,101047.59
2023-05-11T02:27:28.925Z,101042.28
2023-05-11T02:29:56.315Z,101033.38
2023-05-11T02:32:24.839Z,101048.25
2023-05-11T02:35:02.390Z,101047.59
2023-05-11T02:37:31.564Z,101034.03
2023-05-11T02:40:01.702Z,101036.34
2023-05-11T02:42:31.572Z,101033.34
2023-05-11T02:45:03.958Z,101041.28
2023-05-11T02:47:37.586Z,101044.44
2023-05-11T02:50:07.422Z,101045.41
2023-05-11T02:52:39.831Z,101047.41
2023-05-11T02:55:08.812Z,101048.72
2023-05-11T02:57:36.363Z,101057.34
2023-05-11T03:00:05.981Z,101042.44
2023-05-11T03:02:33.363Z,101049.91
2023-05-11T03:05:00.907Z,101055.69
2023-05-11T03:07:28.559Z,101043.97
2023-05-11T03:09:55.927Z,101052.72
2023-05-11T03:12:24.002Z,101050.91
2023-05-11T03:14:52.068Z,101046.44
2023-05-11T03:17:21.694Z,101047.25
2023-05-11T03:19:49.665Z,101045.78
2023-05-11T03:22:17.092Z,101049.91
2023-05-11T03:24:44.805Z,101048.75
2023-05-11T03:27:12.894Z,101049.59
2023-05-11T03:29:43.427Z,101045.78
2023-05-11T03:32:10.920Z,101052.38
2023-05-11T03:34:38.535Z,101042.16
2023-05-11T03:37:07.125Z,101042.31
2023-05-11T03:39:37.448Z,101042.66
2023-05-11T03:42:06.089Z,101035.56
2023-05-11T03:44:35.547Z,101039.22
2023-05-11T03:47:04.907Z,101042.03
2023-05-11T03:49:32.660Z,101040.34
2023-05-11T03:52:00.453Z,101039.38
2023-05-11T03:54:27.955Z,101040.69
2023-05-11T03:56:55.166Z,101045.31
2023-05-11T03:59:23.484Z,101040.03
2023-05-11T04:01:53.672Z,101040.50
2023-05-11T04:04:21.748Z,101040.19
2023-05-11T04:06:49.082Z,101039.22
2023-05-11T04:09:17.103Z,101041.19
2023-05-11T04:11:44.775Z,101039.53
2023-05-11T04:14:12.101Z,101044.50
2023-05-11T04:16:39.571Z,101045.34
2023-05-11T04:19:07.725Z,101046.97
2023-05-11T04:21:37.305Z,101044.81
2023-05-11T04:24:05.151Z,101040.88
2023-05-11T04:26:32.502Z,101046.00
2023-05-11T04:29:00.017Z,101043.16
2023-05-11T04:31:27.403Z,101052.59
2023-05-11T04:33:54.682Z,101049.78
2023-05-11T04:36:22.813Z,101053.56
2023-05-11T04:38:50.026Z,101046.63
2023-05-11T04:41:17.346Z,101045.50
2023-05-11T04:43:44.760Z,101049.59
2023-05-11T04:46:12.231Z,101049.44
2023-05-11T04:48:39.756Z,101053.91
2023-05-11T04:51:07.373Z,101053.06
2023-05-11T04:53:34.654Z,101056.53
2023-05-11T04:56:01.990Z,101050.28
2023-05-11T04:58:29.242Z,101055.06
2023-05-11T05:00:56.595Z,101050.44
2023-05-11T05:03:23.921Z,101054.72
2023-05-11T05:05:51.848Z,101057.19
2023-05-11T05:08:19.229Z,101058.84
2023-05-11T05:10:48.451Z,101061.84
2023-05-11T05:13:17.272Z,101060.81
2023-05-11T05:15:44.643Z,101067.63
2023-05-11T05:18:12.002Z,101068.44
2023-05-11T05:20:40.146Z,101066.94
2023-05-11T05:23:07.626Z,101070.75
2023-05-11T05:25:34.953Z,101075.53
2023-05-11T05:28:02.164Z,101078.81
2023-05-11T05:30:29.634Z,101079.50
2023-05-11T05:32:57.054Z,101086.44
2023-05-11T05:35:24.414Z,101081.97
2023-05-11T05:37:51.639Z,101088.91
2023-05-11T05:40:19.202Z,101089.41
2023-05-11T05:42:49.084Z,101092.88
2023-05-11T05:45:16.321Z,101090.34
2023-05-11T05:47:43.631Z,101093.50
2023-05-11T05:50:12.051Z,101093.84
2023-05-11T05:52:39.652Z,101097.28
2023-05-11T05:55:07.421Z,101098.94
2023-05-11T05:57:34.648Z,101095.78
2023-05-11T06:00:02.013Z,101097.28
2023-05-11T06:02:29.327Z,101096.09
2023-05-11T06:04:56.969Z,101101.22
2023-05-11T06:07:24.371Z,101102.06
2023-05-11T06:09:51.586Z,101099.41
2023-05-11T06:12:18.813Z,101097.06
2023-05-11T06:14:46.099Z,101100.22
2023-05-11T06:17:13.425Z,101106.41
2023-05-11T06:19:41.115Z,101105.34
2023-05-11T06:22:08.481Z,101110.28
2023-05-11T06:24:35.812Z,101108.69
2023-05-11T06:27:03.389Z,101114.16
2023-05-11T06:29:30.772Z,101114.13
2023-05-11T06:31:59.177Z,101109.16
2023-05-11T06:34:26.424Z,101115.88
2023-05-11T06:36:53.626Z,101110.56
2023-05-11T06:39:20.812Z,101118.78
2023-05-11T06:41:48.177Z,101114.75
2023-05-11T06:44:15.506Z,101106.44
2023-05-11T06:46:43.119Z,101117.50
2023-05-11T06:49:10.480Z,101121.81
2023-05-11T06:51:37.788Z,101121.81
2023-05-11T06:54:05.548Z,101123.94
2023-05-11T06:56:34.627Z,101123.66
2023-05-11T06:59:02.429Z,101121.72
2023-05-11T07:01:30.208Z,101129.13
2023-05-11T07:03:57.554Z,101125.50
2023-05-11T07:06:24.916Z,101119.19
2023-05-11T07:08:52.229Z,101127.69
2023-05-11T07:11:20.305Z,101128.31
2023-05-11T07:13:51.424Z,101128.13
2023-05-11T07:16:19.343Z,101126.78
2023-05-11T07:18:56.100Z,101122.75
2023-05-11T07:21:23.833Z,101130.44
2023-05-11T07:23:53.084Z,101121.78
2023-05-11T07:26:22.521Z,101131.69
2023-05-11T07:28:52.317Z,101125.38
2023-05-11T07:31:19.816Z,101125.19
2023-05-11T07:33:47.724Z,101132.78
2023-05-11T07:36:23.388Z,101129.03
2023-05-11T07:38:50.813Z,101131.16
2023-05-11T07:41:19.673Z,101129.00
2023-05-11T07:43:47.037Z,101142.03
2023-05-11T07:46:14.728Z,101143.63
2023-05-11T07:48:42.923Z,101141.00
2023-05-11T07:51:10.193Z,101141.72
2023-05-11T07:53:37.611Z,101146.47
2023-05-11T07:56:05.668Z,101148.47
2023-05-11T07:58:33.203Z,101151.66
2023-05-11T08:01:01.059Z,101144.94
2023-05-11T08:03:28.648Z,101145.00
2023-05-11T08:05:56.056Z,101140.91
2023-05-11T08:08:25.497Z,101146.66
2023-05-11T08:10:52.859Z,101150.28
2023-05-11T08:13:20.248Z,101153.97
2023-05-11T08:15:47.669Z,101153.03
2023-05-11T08:18:15.319Z,101149.31
2023-05-11T08:20:42.835Z,101148.13
2023-05-11T08:23:11.265Z,101146.84
2023-05-11T08:25:38.486Z,101145.84
2023-05-11T08:28:05.897Z,101149.72
2023-05-11T08:30:38.223Z,101155.41
2023-05-11T08:33:17.598Z,101158.69
2023-05-11T08:35:53.047Z,101154.28
2023-05-11T08:38:20.506Z,101160.91
2023-05-11T08:40:49.048Z,101155.69
2023-05-11T08:43:17.146Z,101158.88
2023-05-11T08:45:48.563Z,101155.56
2023-05-11T08:48:18.304Z,101155.28
2023-05-11T08:50:46.318Z,101155.47
2023-05-11T08:53:15.008Z,101154.63
2023-05-11T08:55:47.846Z,101155.94
2023-05-11T08:58:21.014Z,101169.53
2023-05-11T09:00:53.669Z,101157.53
2023-05-11T09:03:23.859Z,101163.81
2023-05-11T09:06:01.606Z,101158.13
2023-05-11T09:08:33.459Z,101163.56
2023-05-11T09:11:02.480Z,101170.56
2023-05-11T09:13:37.564Z,101164.50
2023-05-11T09:16:13.855Z,101163.38
2023-05-11T09:18:55.095Z,101158.75
2023-05-11T09:21:25.649Z,101157.75
2023-05-11T09:23:55.794Z,101164.31
2023-05-11T09:26:25.207Z,101158.06
2023-05-11T09:29:02.778Z,101152.63
2023-05-11T09:31:37.105Z,101159.91
2023-05-11T09:34:15.469Z,101154.94
2023-05-11T09:36:45.018Z,101163.69
2023-05-11T09:39:16.714Z,101154.44
2023-05-11T09:41:44.440Z,101149.28
2023-05-11T09:44:14.693Z,101157.72
2023-05-11T09:46:43.897Z,101151.22
2023-05-11T09:49:12.345Z,101151.91
2023-05-11T09:51:41.249Z,101148.88
2023-05-11T09:54:20.428Z,101161.56
2023-05-11T09:56:51.718Z,101159.31
2023-05-11T09:59:38.690Z,101160.72
2023-05-11T10:02:27.024Z,101161.69
2023-05-11T10:04:56.464Z,101154.84
2023-05-11T10:07:30.302Z,101155.03
2023-05-11T10:09:59.755Z,101150.06
2023-05-11T10:12:28.227Z,101144.31
2023-05-11T10:15:01.729Z,101145.72
2023-05-11T10:17:31.103Z,101147.56
2023-05-11T10:19:59.896Z,101148.00
2023-05-11T10:22:32.544Z,101141.66
2023-05-11T10:25:02.371Z,101147.41
2023-05-11T10:27:29.760Z,101142.06
2023-05-11T10:29:59.845Z,101142.06
2023-05-11T10:32:28.342Z,101144.75
2023-05-11T10:37:47.033Z,101142.47
2023-05-11T10:40:14.740Z,101137.97
2023-05-11T10:42:52.203Z,101143.91
2023-05-11T10:45:26.820Z,101153.38
2023-05-11T10:48:04.251Z,101143.31
2023-05-11T10:50:44.324Z,101142.31
2023-05-11T10:53:20.816Z,101142.72
2023-05-11T10:56:10.482Z,101136.19
2023-05-11T10:58:55.943Z,101143.81
2023-05-11T11:01:56.465Z,101139.94
2023-05-11T11:04:24.874Z,101137.28
2023-05-11T11:07:05.721Z,101137.03
2023-05-11T11:12:22.471Z,101137.97
2023-05-11T11:15:00.594Z,101136.28
2023-05-11T11:17:33.042Z,101143.59
2023-05-11T11:20:02.764Z,101142.53
2023-05-11T11:22:41.748Z,101142.28
2023-05-11T11:25:36.694Z,101137.75
2023-05-11T11:28:04.089Z,101132.75
2023-05-11T11:30:31.608Z,101122.88
2023-05-11T11:33:10.869Z,101123.06
2023-05-11T11:35:43.239Z,101131.25
2023-05-11T11:38:14.580Z,101127.78
2023-05-11T11:43:20.152Z,101125.34
2023-05-11T11:45:58.319Z,101128.88
2023-05-11T11:48:36.371Z,101125.50
2023-05-11T11:51:05.814Z,101129.47
2023-05-11T11:53:42.166Z,101126.78
2023-05-11T11:56:17.829Z,101122.06
2023-05-11T11:58:45.618Z,101124.25
2023-05-11T12:01:15.131Z,101125.00
2023-05-11T12:03:45.429Z,101120.50
2023-05-11T12:06:14.692Z,101126.66
2023-05-11T12:08:43.738Z,101127.25
2023-05-11T12:11:11.541Z,101126.38
2023-05-11T12:13:39.137Z,101127.59
2023-05-11T12:16:15.901Z,101122.00
2023-05-11T12:18:53.088Z,101130.00
2023-05-11T12:21:21.833Z,101128.28
2023-05-11T12:23:55.684Z,101128.88
2023-05-11T12:26:24.510Z,101136.78
2023-05-11T12:28:52.870Z,101125.41
2023-05-11T12:31:20.126Z,101134.56
2023-05-11T12:33:49.982Z,101120.59
2023-05-11T12:36:18.559Z,101131.03
2023-05-11T12:38:48.159Z,101133.00
2023-05-11T12:41:23.668Z,101134.66
2023-05-11T12:43:57.053Z,101135.72
2023-05-11T12:46:24.672Z,101139.38
2023-05-11T12:48:56.259Z,101134.84
2023-05-11T12:51:44.035Z,101133.44
2023-05-11T12:54:12.096Z,101134.44
2023-05-11T12:56:49.064Z,101131.41
2023-05-11T12:59:31.476Z,101135.72
2023-05-11T13:02:09.691Z,101137.25
2023-05-11T13:04:38.084Z,101131.09
2023-05-11T13:07:05.784Z,101130.63
2023-05-11T13:09:33.638Z,101135.00
2023-05-11T13:12:21.890Z,101132.91
2023-05-11T13:14:51.828Z,101132.91
2023-05-11T13:17:30.451Z,101132.47
2023-05-11T13:19:58.452Z,101129.69
2023-05-11T13:22:26.321Z,101118.91
2023-05-11T13:25:38.496Z,101125.94
2023-05-11T13:28:06.092Z,101130.59
2023-05-11T13:30:35.191Z,101119.19
2023-05-11T13:33:02.819Z,101126.75
2023-05-11T13:35:33.908Z,101133.25
2023-05-11T13:38:01.145Z,101127.38
2023-05-11T13:40:28.592Z,101134.06
2023-05-11T13:42:57.180Z,101129.41
2023-05-11T13:45:24.830Z,101121.81
2023-05-11T13:47:52.153Z,101121.72
2023-05-11T13:50:19.314Z,101117.41
2023-05-11T13:52:47.459Z,101120.53
2023-05-11T13:55:19.799Z,101114.88
2023-05-11T13:57:47.272Z,101113.31
2023-05-11T14:00:15.624Z,101116.88
2023-05-11T14:02:45.876Z,101108.00
2023-05-11T14:05:21.814Z,101114.59
2023-05-11T14:07:49.452Z,101114.47
2023-05-11T14:10:18.018Z,101111.94
2023-05-11T14:12:46.693Z,101113.66
2023-05-11T14:15:24.225Z,101111.75
2023-05-11T14:17:52.001Z,101118.41
2023-05-11T14:20:19.348Z,101113.41
2023-05-11T14:22:46.769Z,101110.25
2023-05-11T14:25:14.034Z,101104.44
2023-05-11T14:27:41.334Z,101104.97
2023-05-11T14:30:09.573Z,101104.03
2023-05-11T14:32:37.567Z,101095.72
2023-05-11T14:35:33.809Z,101101.56
2023-05-11T14:38:01.728Z,101090.97
2023-05-11T14:40:29.046Z,101092.03
2023-05-11T14:42:56.355Z,101102.91
2023-05-11T14:45:27.610Z,101093.75
2023-05-11T14:47:55.178Z,101095.66
2023-05-11T14:50:22.345Z,101099.22
2023-05-11T14:52:52.793Z,101102.72
2023-05-11T14:55:29.014Z,101099.69
2023-05-11T14:57:56.977Z,101094.72
2023-05-11T15:00:24.344Z,101101.91
2023-05-11T15:02:53.196Z,101103.13
2023-05-11T15:05:28.271Z,101095.13
2023-05-11T15:07:57.929Z,101100.63
2023-05-11T15:10:26.719Z,101099.81
2023-05-11T15:12:55.543Z,101103.13
2023-05-11T15:15:32.011Z,101100.47
2023-05-11T15:18:03.630Z,101100.88
2023-05-11T15:20:31.344Z,101115.25
2023-05-11T15:22:59.000Z,101116.03
2023-05-11T15:25:41.718Z,101115.03
2023-05-11T15:28:11.836Z,101119.53
2023-05-11T15:30:55.470Z,101117.69
2023-05-11T15:33:25.709Z,101114.84
2023-05-11T15:35:53.444Z,101114.66
2023-05-11T15:38:23.370Z,101117.31
2023-05-11T15:40:51.537Z,101121.22
2023-05-11T15:43:20.043Z,101121.22
2023-05-11T15:46:04.163Z,101120.22
2023-05-11T15:48:32.241Z,101121.66
2023-05-11T15:51:01.374Z,101124.78
2023-05-11T15:53:29.305Z,101127.44
2023-05-11T15:55:59.566Z,101119.44
2023-05-11T15:58:26.938Z,101118.63
2023-05-11T16:00:54.745Z,101114.47
2023-05-11T16:03:23.994Z,101116.78
2023-05-11T16:08:53.944Z,101118.41
2023-05-11T16:11:34.622Z,101125.19
2023-05-11T16:14:02.260Z,101124.78
2023-05-11T16:16:32.189Z,101135.25
2023-05-11T16:19:01.089Z,101129.75
2023-05-11T16:21:29.480Z,101135.69
2023-05-11T16:24:02.904Z,101136.94
2023-05-11T16:27:34.031Z,101138.81
2023-05-11T16:30:01.041Z,101143.72
2023-05-11T16:32:31.818Z,101156.41
2023-05-11T16:35:00.000Z,101162.13
2023-05-11T16:37:27.669Z,101154.97
2023-05-11T16:39:56.253Z,101158.06
2023-05-11T16:45:13.939Z,101164.63
2023-05-11T16:50:43.942Z,101165.28
2023-05-11T16:53:32.372Z,101157.47
2023-05-11T16:56:00.816Z,101164.84
2023-05-11T16:58:39.847Z,101168.28
2023-05-11T17:01:28.140Z,101166.81
2023-05-11T17:03:56.502Z,101167.75
2023-05-11T17:06:27.269Z,101182.06
2023-05-11T17:08:57.581Z,101177.56
2023-05-11T17:11:25.026Z,101180.84
2023-05-11T17:13:52.495Z,101181.91
2023-05-11T17:16:20.308Z,101191.97
2023-05-11T17:18:48.106Z,101187.91
2023-05-11T17:21:18.293Z,101190.56
2023-05-11T17:23:45.807Z,101193.88
2023-05-11T17:26:17.131Z,101206.63
2023-05-11T17:29:00.684Z,101206.28
2023-05-11T17:34:18.886Z,101207.78
2023-05-11T17:36:49.587Z,101209.06
2023-05-11T17:39:17.464Z,101204.31
2023-05-11T17:41:44.717Z,101203.00
2023-05-11T17:44:11.955Z,101200.94
2023-05-11T17:46:39.788Z,101192.34
2023-05-11T17:49:15.006Z,101196.38
2023-05-11T17:51:42.246Z,101193.28
2023-05-11T17:54:09.971Z,101201.22
2023-05-11T17:56:37.723Z,101196.69
2023-05-11T17:59:10.528Z,101200.97
2023-05-11T18:01:45.827Z,101201.53
2023-05-11T18:04:13.463Z,101208.63
2023-05-11T18:06:47.826Z,101214.72
2023-05-11T18:09:21.292Z,101216.13
2023-05-11T18:11:48.621Z,101212.41
2023-05-11T18:14:16.053Z,101212.56
2023-05-11T18:16:44.084Z,101221.56
2023-05-11T18:19:11.880Z,101227.28
2023-05-11T18:21:40.936Z,101222.34
2023-05-11T18:24:10.377Z,101233.75
2023-05-11T18:26:37.661Z,101229.63
2023-05-11T18:29:05.473Z,101225.69
2023-05-11T18:31:33.130Z,101231.59
2023-05-11T18:34:00.350Z,101236.66
2023-05-11T18:36:28.545Z,101231.22
2023-05-11T18:38:55.784Z,101237.75
2023-05-11T18:41:23.207Z,101246.09
2023-05-11T18:43:52.550Z,101240.34
2023-05-11T18:46:20.647Z,101251.16
2023-05-11T18:48:51.045Z,101251.53
2023-05-11T18:51:22.993Z,101251.94
2023-05-11T18:53:50.537Z,101257.44
2023-05-11T18:56:18.066Z,101259.66
2023-05-11T18:58:46.941Z,101260.66
2023-05-11T19:01:14.568Z,101258.00
2023-05-11T19:03:41.958Z,101268.81
2023-05-11T19:06:09.445Z,101261.00
2023-05-11T19:08:36.703Z,101267.53
2023-05-11T19:11:08.276Z,101267.25
2023-05-11T19:13:35.727Z,101275.81
2023-05-11T19:16:04.537Z,101275.34
2023-05-11T19:18:35.712Z,101278.38
2023-05-11T19:21:05.452Z,101288.38
2023-05-11T19:23:33.690Z,101293.03
2023-05-11T19:26:00.903Z,101283.59
2023-05-11T19:28:28.164Z,101289.28
2023-05-11T19:31:04.287Z,101296.81
2023-05-11T19:33:31.765Z,101301.63
2023-05-11T19:35:59.406Z,101306.16
2023-05-11T19:38:26.604Z,101313.31
2023-05-11T19:40:53.847Z,101325.13
2023-05-11T19:43:21.359Z,101325.94
2023-05-11T19:45:48.828Z,101332.25
2023-05-11T19:48:17.419Z,101337.41
2023-05-11T19:50:44.709Z,101339.22
2023-05-11T19:53:11.861Z,101341.06
2023-05-11T19:55:40.930Z,101342.06
2023-05-11T19:58:08.199Z,101345.56
2023-05-11T20:00:35.558Z,101345.75
2023-05-11T20:03:02.942Z,101345.09
2023-05-11T20:05:30.114Z,101354.25
2023-05-11T20:07:57.419Z,101353.63
2023-05-11T20:10:24.560Z,101362.41
2023-05-11T20:12:52.050Z,101364.25
2023-05-11T20:15:19.806Z,101364.25
2023-05-11T20:17:47.192Z,101369.28
2023-05-11T20:20:14.545Z,101375.13
2023-05-11T20:22:44.046Z,101375.47
2023-05-11T20:25:17.833Z,101384.34
2023-05-11T20:27:48.734Z,101391.34
2023-05-11T20:30:16.239Z,101393.53
2023-05-11T20:35:14.261Z,101403.03
2023-05-11T20:37:41.562Z,101406.38
2023-05-11T20:40:09.756Z,101404.13
2023-05-11T20:42:38.695Z,101405.19
2023-05-11T20:45:07.656Z,101417.84
2023-05-11T20:47:35.079Z,101417.69
2023-05-11T20:50:02.668Z,101414.25
2023-05-11T20:52:30.530Z,101417.09
2023-05-11T20:54:57.706Z,101421.09
2023-05-11T20:57:24.983Z,101419.31
2023-05-11T21:02:22.709Z,101409.56
2023-05-11T21:04:50.870Z,101409.91
2023-05-11T21:07:18.019Z,101416.06
2023-05-11T21:09:45.130Z,101412.22
2023-05-11T21:12:12.281Z,101414.56
2023-05-11T21:14:39.401Z,101418.56
2023-05-11T21:17:06.661Z,101420.88
2023-05-11T21:19:33.883Z,101416.38
2023-05-11T21:22:01.051Z,101418.56
2023-05-11T21:24:28.176Z,101421.56
2023-05-11T21:26:57.502Z,101424.88
2023-05-11T21:29:24.622Z,101427.06
2023-05-11T21:31:52.055Z,101425.41
2023-05-11T21:34:19.210Z,101429.03
2023-05-11T21:36:46.269Z,101430.38
2023-05-11T21:39:13.634Z,101435.53
2023-05-11T21:41:40.764Z,101431.22
2023-05-11T21:44:08.197Z,101438.50
2023-05-11T21:46:35.615Z,101436.84
2023-05-11T21:49:03.635Z,101436.31
2023-05-11T21:51:30.686Z,101435.34
2023-05-11T21:54:00.957Z,101432.16
2023-05-11T21:56:28.133Z,101426.88
2023-05-11T21:58:55.334Z,101431.03
2023-05-11T22:01:22.900Z,101424.06
2023-05-11T22:03:50.625Z,101437.47
2023-05-11T22:06:17.768Z,101443.59
2023-05-11T22:08:45.121Z,101436.84
2023-05-11T22:11:12.356Z,101434.50
2023-05-11T22:13:39.486Z,101449.09
2023-05-11T22:16:06.951Z,101437.03
2023-05-11T22:18:34.064Z,101434.53
2023-05-11T22:21:01.293Z,101450.59
2023-05-11T22:23:28.434Z,101451.78
2023-05-11T22:25:56.083Z,101461.53
2023-05-11T22:28:23.441Z,101454.28
2023-05-11T22:30:50.574Z,101454.09
2023-05-11T22:33:17.780Z,101452.78
2023-05-11T22:35:45.077Z,101449.28
2023-05-11T22:38:12.172Z,101453.91
2023-05-11T22:40:39.389Z,101454.91
2023-05-11T22:43:06.401Z,101450.63
2023-05-11T22:45:33.480Z,101456.56
2023-05-11T22:48:00.725Z,101459.91
2023-05-11T22:50:28.430Z,101467.84
2023-05-11T22:52:55.775Z,101459.06
2023-05-11T22:55:23.226Z,101463.69
2023-05-11T22:57:50.335Z,101469.34
2023-05-11T23:00:17.960Z,101463.34
2023-05-11T23:02:47.647Z,101465.50
2023-05-11T23:05:14.735Z,101466.19
2023-05-11T23:07:41.890Z,101468.66
2023-05-11T23:10:09.557Z,101471.50
2023-05-11T23:12:36.633Z,101474.44
2023-05-11T23:15:07.857Z,101477.94
2023-05-11T23:17:34.947Z,101486.22
2023-05-11T23:20:02.144Z,101478.56
2023-05-11T23:22:29.331Z,101470.81
2023-05-11T23:24:57.120Z,101470.28
2023-05-11T23:27:24.896Z,101463.50
2023-05-11T23:29:52.178Z,101469.13
2023-05-11T23:32:19.151Z,101464.84
2023-05-11T23:34:46.340Z,101470.28
2023-05-11T23:37:13.984Z,101476.56
2023-05-11T23:39:41.062Z,101476.91
2023-05-11T23:42:09.342Z,101478.72
2023-05-11T23:44:36.530Z,101477.72
2023-05-11T23:47:03.676Z,101483.19
2023-05-11T23:49:30.761Z,101480.69
2023-05-11T23:51:57.854Z,101486.00
2023-05-11T23:54:24.902Z,101487.31
2023-05-11T23:56:52.036Z,101490.94
2023-05-11T23:59:19.053Z,101488.28
